Time;durP1;ratioP1;P1;durP2;ratioP2;P2;SDS_P1;SDS_P2;PMS_P1;PMS_P2;Temp;Humidity;BMP_temperature;BMP_pressure;BME280_temperature;BME280_humidity;BME280_pressure;Samples;Min_cycle;Max_cycle;Signal;HPM_P1;HPM_P2
2021/05/17 00:00:09;;;;;;;18.10;4.65;;;11.30;99.90;;;;;;4819272;29;20055;-76
2021/05/17 00:02:35;;;;;;;11.20;3.55;;;11.20;99.90;;;;;;4822843;29;20384;-76
2021/05/17 00:05:01;;;;;;;10.40;3.72;;;11.20;99.90;;;;;;4801711;29;20061;-75
2021/05/17 00:07:27;;;;;;;8.98;4.22;;;11.20;99.90;;;;;;4814423;29;20051;-76
2021/05/17 00:09:53;;;;;;;14.15;4.30;;;11.20;99.90;;;;;;4812707;29;20035;-76
2021/05/17 00:12:20;;;;;;;9.68;4.00;;;11.20;99.90;;;;;;4806563;29;20506;-76
2021/05/17 00:14:46;;;;;;;8.80;3.65;;;11.10;99.90;;;;;;4812611;29;20046;-76
2021/05/17 00:17:12;;;;;;;10.70;4.20;;;11.10;99.90;;;;;;4814130;29;20053;-76
2021/05/17 00:19:38;;;;;;;8.40;3.75;;;11.10;99.90;;;;;;4821421;29;20054;-76
2021/05/17 00:22:04;;;;;;;11.52;4.50;;;11.10;99.90;;;;;;4797334;29;20127;-76
2021/05/17 00:24:31;;;;;;;13.80;4.30;;;11.10;99.90;;;;;;4820996;29;20411;-76
2021/05/17 00:26:57;;;;;;;10.93;3.80;;;11.00;99.90;;;;;;4799206;29;20042;-76
2021/05/17 00:29:24;;;;;;;7.95;4.07;;;11.10;99.90;;;;;;4811097;29;20043;-77
2021/05/17 00:31:50;;;;;;;14.65;4.60;;;11.00;99.90;;;;;;4819094;29;20046;-80
2021/05/17 00:34:16;;;;;;;11.57;4.20;;;11.00;99.90;;;;;;4803034;29;20055;-80
2021/05/17 00:36:42;;;;;;;10.65;4.68;;;11.00;99.90;;;;;;4807490;29;20483;-80
2021/05/17 00:39:11;;;;;;;13.70;4.57;;;11.00;99.90;;;;;;4810630;29;20504;-80
2021/05/17 00:41:38;;;;;;;7.72;4.45;;;10.90;99.90;;;;;;4810008;29;20034;-80
2021/05/17 00:44:05;;;;;;;12.10;4.32;;;10.90;99.90;;;;;;4823301;29;20414;-79
2021/05/17 00:46:32;;;;;;;11.43;4.47;;;10.90;99.90;;;;;;4811774;29;20500;-79
2021/05/17 00:48:59;;;;;;;9.00;4.18;;;10.90;99.90;;;;;;4805552;29;20069;-79
2021/05/17 00:51:25;;;;;;;10.77;4.65;;;10.90;99.90;;;;;;4818406;29;20042;-79
2021/05/17 00:53:52;;;;;;;9.73;3.92;;;10.90;99.90;;;;;;4823446;29;20050;-79
2021/05/17 00:56:19;;;;;;;11.57;4.45;;;10.90;99.90;;;;;;4813546;29;20487;-79
2021/05/17 00:58:47;;;;;;;9.10;4.50;;;10.90;99.90;;;;;;4811989;29;20039;-80
2021/05/17 01:01:16;;;;;;;12.40;4.50;;;10.90;99.90;;;;;;4807901;29;20547;-79
2021/05/17 01:03:42;;;;;;;10.82;4.22;;;10.90;99.90;;;;;;4810236;29;20138;-79
2021/05/17 01:06:09;;;;;;;8.98;4.00;;;10.90;99.90;;;;;;4820951;29;20119;-79
2021/05/17 01:08:58;;;;;;;8.90;4.28;;;10.90;99.90;;;;;;4819700;29;20126;-79
2021/05/17 01:11:28;;;;;;;8.68;4.50;;;10.90;99.90;;;;;;4818835;29;20053;-79
2021/05/17 01:13:59;;;;;;;7.63;3.70;;;10.90;99.90;;;;;;4814230;29;20108;-79
2021/05/17 01:16:26;;;;;;;8.88;3.90;;;10.90;99.90;;;;;;4815268;29;20043;-79
2021/05/17 01:18:53;;;;;;;8.55;4.00;;;10.90;99.90;;;;;;4823522;29;20088;-81
2021/05/17 01:21:21;;;;;;;10.98;3.75;;;10.90;99.90;;;;;;4824995;29;20095;-80
2021/05/17 01:23:56;;;;;;;7.35;3.65;;;10.90;99.90;;;;;;4825095;29;20038;-81
2021/05/17 01:26:30;;;;;;;8.60;4.28;;;11.00;99.90;;;;;;4822964;29;20042;-80
2021/05/17 01:29:04;;;;;;;8.23;3.77;;;11.00;99.90;;;;;;4823571;29;20122;-80
2021/05/17 01:31:30;;;;;;;8.45;4.10;;;11.00;99.90;;;;;;4824477;29;20298;-80
2021/05/17 01:33:56;;;;;;;7.22;4.03;;;11.10;99.90;;;;;;4826042;29;20096;-81
2021/05/17 01:36:24;;;;;;;8.60;4.15;;;11.10;99.90;;;;;;4810587;29;20129;-80
2021/05/17 01:38:53;;;;;;;9.02;4.00;;;11.10;99.90;;;;;;4816247;29;20475;-80
2021/05/17 01:41:21;;;;;;;10.57;4.35;;;11.10;99.90;;;;;;4811584;29;20091;-77
2021/05/17 01:43:51;;;;;;;8.15;3.90;;;11.10;99.90;;;;;;4820038;29;20042;-76
2021/05/17 01:46:19;;;;;;;8.32;4.00;;;11.10;99.90;;;;;;4800963;29;20046;-76
2021/05/17 01:48:45;;;;;;;7.18;4.07;;;11.10;99.90;;;;;;4817101;29;20045;-75
2021/05/17 01:51:15;;;;;;;9.23;3.80;;;11.10;99.90;;;;;;4817339;29;20133;-76
2021/05/17 01:53:42;;;;;;;6.63;4.00;;;11.10;99.90;;;;;;4824769;29;20042;-76
2021/05/17 01:56:09;;;;;;;11.43;4.00;;;11.10;99.90;;;;;;4808884;29;20058;-76
2021/05/17 01:58:36;;;;;;;7.75;4.03;;;11.10;99.90;;;;;;4808789;29;20038;-77
2021/05/17 02:01:04;;;;;;;8.25;4.22;;;11.10;99.90;;;;;;4808968;29;20045;-77
2021/05/17 02:03:38;;;;;;;7.70;3.75;;;11.10;99.90;;;;;;4796741;29;20782;-77
2021/05/17 02:06:05;;;;;;;7.80;3.63;;;11.00;99.90;;;;;;4807387;29;20039;-77
2021/05/17 02:08:31;;;;;;;8.18;3.70;;;11.00;99.90;;;;;;4791246;29;20051;-77
2021/05/17 02:10:57;;;;;;;5.47;3.22;;;11.10;99.90;;;;;;4806980;29;20039;-77
2021/05/17 02:13:25;;;;;;;7.93;4.13;;;11.10;99.90;;;;;;4806188;29;20103;-76
2021/05/17 02:15:51;;;;;;;6.95;3.55;;;10.90;99.90;;;;;;4807426;29;20045;-77
2021/05/17 02:18:17;;;;;;;7.38;3.30;;;10.90;99.90;;;;;;4806259;29;20476;-77
2021/05/17 02:20:45;;;;;;;5.97;3.38;;;10.90;99.90;;;;;;4805404;29;20050;-76
2021/05/17 02:23:13;;;;;;;8.23;3.22;;;10.90;99.90;;;;;;4790992;29;20136;-76
2021/05/17 02:25:48;;;;;;;7.88;3.28;;;10.80;99.90;;;;;;4806995;29;20046;-76
2021/05/17 02:28:15;;;;;;;6.03;3.17;;;10.80;99.90;;;;;;4807214;29;20047;-77
2021/05/17 02:30:42;;;;;;;5.53;3.42;;;10.80;99.90;;;;;;4806940;29;20591;-77
2021/05/17 02:33:09;;;;;;;5.78;2.83;;;10.90;99.90;;;;;;4805920;29;20058;-76
2021/05/17 02:35:36;;;;;;;5.10;2.75;;;10.80;99.90;;;;;;4806798;29;20042;-76
2021/05/17 02:38:03;;;;;;;4.68;2.88;;;10.80;99.90;;;;;;4805628;29;20062;-77
2021/05/17 02:40:30;;;;;;;6.20;2.85;;;10.80;99.90;;;;;;4806540;29;20540;-76
2021/05/17 02:43:14;;;;;;;4.97;2.63;;;10.80;99.90;;;;;;4806791;29;20400;-77
2021/05/17 02:45:40;;;;;;;5.18;2.30;;;10.80;99.90;;;;;;4805269;29;20051;-76
2021/05/17 02:48:09;;;;;;;4.10;2.10;;;10.80;99.90;;;;;;4806538;29;20047;-79
2021/05/17 02:50:40;;;;;;;4.35;2.30;;;10.80;99.90;;;;;;4805542;29;20122;-79
2021/05/17 02:53:28;;;;;;;4.72;2.15;;;10.80;99.90;;;;;;4805706;29;20042;-79
2021/05/17 02:55:56;;;;;;;3.90;2.60;;;10.80;99.90;;;;;;4805442;29;20042;-79
2021/05/17 02:58:23;;;;;;;4.95;2.53;;;10.90;99.90;;;;;;4806559;29;20050;-79
2021/05/17 03:00:53;;;;;;;3.10;2.53;;;10.80;99.90;;;;;;4790218;29;20039;-79
2021/05/17 03:03:23;;;;;;;3.63;2.50;;;10.80;99.90;;;;;;4805461;29;20043;-79
2021/05/17 03:06:03;;;;;;;6.53;3.25;;;10.90;99.90;;;;;;4806655;29;20053;-79
2021/05/17 03:08:37;;;;;;;7.13;3.50;;;10.80;99.90;;;;;;4806347;29;20034;-79
2021/05/17 03:11:03;;;;;;;8.68;4.03;;;10.70;99.90;;;;;;4806249;29;20039;-79
2021/05/17 03:13:30;;;;;;;6.47;4.15;;;10.80;99.90;;;;;;4805129;29;20488;-77
2021/05/17 03:15:56;;;;;;;8.82;5.40;;;10.80;99.90;;;;;;4805373;29;20043;-76
2021/05/17 03:18:23;;;;;;;8.43;5.13;;;10.80;99.90;;;;;;4790683;29;20471;-79
2021/05/17 03:20:50;;;;;;;9.55;5.70;;;10.90;99.90;;;;;;4804851;29;20100;-79
2021/05/17 03:23:16;;;;;;;9.88;5.65;;;10.80;99.90;;;;;;4804991;29;20070;-79
2021/05/17 03:25:44;;;;;;;11.20;6.20;;;11.10;99.90;;;;;;4804886;29;20046;-79
2021/05/17 03:28:10;;;;;;;9.00;6.32;;;10.90;99.90;;;;;;4805164;29;20357;-81
2021/05/17 03:30:36;;;;;;;12.38;6.72;;;10.90;99.90;;;;;;4805451;29;20498;-79
2021/05/17 03:33:03;;;;;;;8.32;6.32;;;11.30;99.90;;;;;;4805713;29;20039;-79
2021/05/17 03:35:29;;;;;;;9.88;7.40;;;10.90;99.90;;;;;;4805681;29;20074;-79
2021/05/17 03:37:55;;;;;;;11.38;6.97;;;10.90;99.90;;;;;;4805791;29;20043;-79
2021/05/17 03:40:21;;;;;;;15.90;8.23;;;11.00;99.90;;;;;;4805716;29;20039;-79
2021/05/17 03:42:47;;;;;;;10.60;7.97;;;10.90;99.90;;;;;;4805730;29;20042;-79
2021/05/17 03:45:14;;;;;;;11.70;7.82;;;11.10;99.90;;;;;;4805342;29;20050;-79
2021/05/17 03:47:40;;;;;;;12.98;7.72;;;10.90;99.90;;;;;;4804340;29;20043;-79
2021/05/17 03:50:08;;;;;;;11.95;8.55;;;10.90;99.90;;;;;;4805648;29;20542;-79
2021/05/17 03:52:34;;;;;;;12.13;8.20;;;10.90;99.90;;;;;;4805712;29;20111;-80
2021/05/17 03:55:00;;;;;;;12.40;8.52;;;10.90;99.90;;;;;;4805557;29;20031;-80
2021/05/17 03:57:27;;;;;;;15.57;9.30;;;10.90;99.90;;;;;;4805442;29;20117;-79
2021/05/17 03:59:53;;;;;;;16.77;10.38;;;10.90;99.90;;;;;;4805121;29;20164;-80
2021/05/17 04:02:21;;;;;;;15.57;10.07;;;10.90;99.90;;;;;;4789400;29;20049;-79
2021/05/17 04:15:42;;;;;;;22.42;11.38;;;10.90;99.90;;;;;;4805376;29;20084;-78
2021/05/17 04:18:08;;;;;;;17.10;11.43;;;10.90;99.90;;;;;;4789241;29;20038;-77
2021/05/17 04:20:34;;;;;;;17.13;11.18;;;10.80;99.90;;;;;;4805069;29;20050;-77
2021/05/17 04:23:00;;;;;;;17.30;11.23;;;10.80;99.90;;;;;;4804547;29;20066;-77
2021/05/17 04:25:26;;;;;;;19.67;11.80;;;11.00;99.90;;;;;;4803778;29;20476;-77
2021/05/17 04:27:52;;;;;;;19.20;12.57;;;10.90;99.90;;;;;;4804060;29;20047;-78
2021/05/17 04:30:18;;;;;;;18.25;12.48;;;10.80;99.90;;;;;;4804639;29;20043;-77
2021/05/17 04:32:46;;;;;;;20.98;12.90;;;10.80;99.90;;;;;;4803640;29;20076;-76
2021/05/17 04:35:13;;;;;;;18.30;12.60;;;10.80;99.90;;;;;;4803827;29;20039;-76
2021/05/17 04:37:39;;;;;;;19.10;11.95;;;10.80;99.90;;;;;;4805323;29;20047;-76
2021/05/17 04:40:06;;;;;;;18.85;11.90;;;10.80;99.90;;;;;;4804118;29;20046;-78
2021/05/17 04:42:32;;;;;;;20.98;12.18;;;10.90;99.90;;;;;;4805896;29;20088;-78
2021/05/17 04:44:58;;;;;;;16.63;11.82;;;10.90;99.90;;;;;;4808478;29;20062;-78
2021/05/17 04:47:24;;;;;;;20.70;12.40;;;10.90;99.90;;;;;;4808289;29;20046;-78
2021/05/17 04:49:51;;;;;;;22.42;12.68;;;10.90;99.90;;;;;;4807412;29;20041;-78
2021/05/17 04:52:17;;;;;;;20.45;11.30;;;10.90;99.90;;;;;;4807498;29;20047;-78
2021/05/17 04:54:43;;;;;;;15.35;11.70;;;10.90;99.90;;;;;;4807350;29;20488;-78
2021/05/17 04:57:09;;;;;;;18.67;11.95;;;10.80;99.90;;;;;;4807432;29;20047;-78
2021/05/17 04:59:35;;;;;;;20.05;11.95;;;11.40;99.90;;;;;;4808286;29;20045;-79
2021/05/17 05:02:01;;;;;;;19.35;12.15;;;10.90;99.90;;;;;;4808179;29;20053;-76
2021/05/17 05:04:26;;;;;;;19.27;11.75;;;10.80;99.90;;;;;;4808119;29;20530;-76
2021/05/17 05:06:52;;;;;;;18.95;11.00;;;10.80;99.90;;;;;;4808539;29;20433;-76
2021/05/17 05:09:18;;;;;;;19.17;10.70;;;11.10;99.90;;;;;;4806847;29;20484;-76
2021/05/17 05:11:44;;;;;;;16.48;11.23;;;10.90;99.90;;;;;;4807409;29;20049;-76
2021/05/17 05:14:10;;;;;;;17.67;10.95;;;11.00;99.90;;;;;;4806900;29;20046;-76
2021/05/17 05:16:36;;;;;;;15.35;11.30;;;10.80;99.90;;;;;;4808170;29;20416;-76
2021/05/17 05:19:02;;;;;;;17.20;11.68;;;10.80;99.90;;;;;;4808102;29;20143;-76
2021/05/17 05:21:28;;;;;;;15.30;11.65;;;10.80;99.90;;;;;;4808311;29;20038;-76
2021/05/17 05:23:54;;;;;;;16.90;10.88;;;11.10;99.90;;;;;;4791841;29;20050;-76
2021/05/17 05:33:54;;;;;;;18.48;11.98;;;10.90;99.90;;;;;;4806726;29;20113;-76
2021/05/17 05:36:20;;;;;;;17.50;11.95;;;10.90;99.90;;;;;;4807712;29;20142;-76
2021/05/17 05:38:46;;;;;;;21.17;11.85;;;10.80;99.90;;;;;;4791881;29;20495;-76
2021/05/17 05:41:13;;;;;;;19.98;12.55;;;10.80;99.90;;;;;;4806700;29;20039;-76
2021/05/17 05:43:41;;;;;;;23.33;12.85;;;10.80;99.90;;;;;;4807186;29;20442;-77
2021/05/17 05:46:07;;;;;;;23.83;13.65;;;10.80;99.90;;;;;;4781099;29;20137;-77
2021/05/17 05:48:46;;;;;;;23.52;13.63;;;10.90;99.90;;;;;;4806666;29;20126;-77
2021/05/17 05:51:14;;;;;;;19.17;12.63;;;10.90;99.90;;;;;;4806160;29;20037;-77
2021/05/17 05:53:40;;;;;;;17.67;12.27;;;11.10;99.90;;;;;;4806111;29;20038;-76
2021/05/17 05:56:05;;;;;;;18.73;12.30;;;10.80;99.90;;;;;;4806643;29;20049;-76
2021/05/17 05:58:31;;;;;;;21.42;12.90;;;10.80;99.90;;;;;;4807617;29;20104;-77
2021/05/17 06:00:57;;;;;;;18.35;12.05;;;11.00;99.90;;;;;;4805544;29;20043;-78
2021/05/17 06:03:23;;;;;;;22.63;13.15;;;10.90;99.90;;;;;;4791388;29;20117;-81
2021/05/17 06:05:49;;;;;;;16.95;12.02;;;10.90;99.90;;;;;;4806085;29;20072;-82
2021/05/17 06:08:15;;;;;;;19.27;12.27;;;10.90;99.90;;;;;;4791500;29;20409;-82
2021/05/17 06:10:42;;;;;;;18.75;12.70;;;10.90;99.90;;;;;;4790549;29;20051;-80
2021/05/17 06:13:11;;;;;;;20.25;13.98;;;11.00;99.90;;;;;;4806927;29;20047;-80
2021/05/17 06:15:40;;;;;;;15.60;12.25;;;11.00;99.90;;;;;;4806487;29;20039;-79
2021/05/17 06:18:06;;;;;;;19.02;12.93;;;11.00;99.90;;;;;;4803991;29;20038;-79
2021/05/17 06:20:33;;;;;;;17.35;12.82;;;11.00;99.90;;;;;;4805978;29;20047;-79
2021/05/17 06:22:59;;;;;;;18.13;12.75;;;11.00;99.90;;;;;;4806751;29;20039;-79
2021/05/17 06:25:26;;;;;;;19.00;13.07;;;11.00;99.90;;;;;;4805523;29;20484;-79
2021/05/17 06:27:52;;;;;;;19.52;13.95;;;11.10;99.90;;;;;;4804889;29;20051;-75
2021/05/17 06:30:20;;;;;;;21.63;15.02;;;11.30;99.90;;;;;;4805530;29;20039;-74
2021/05/17 06:32:50;;;;;;;24.85;14.57;;;11.10;99.90;;;;;;4805554;29;20072;-74
2021/05/17 06:35:26;;;;;;;17.48;13.73;;;11.20;99.90;;;;;;4804518;29;20377;-73
2021/05/17 06:37:52;;;;;;;20.20;14.57;;;11.20;99.90;;;;;;4806421;29;20064;-73
2021/05/17 06:40:18;;;;;;;20.75;13.88;;;11.20;99.90;;;;;;4801711;29;20047;-83
2021/05/17 06:42:45;;;;;;;23.45;14.75;;;11.20;99.90;;;;;;4803852;29;20464;-84
2021/05/17 06:45:12;;;;;;;21.25;14.52;;;11.30;99.90;;;;;;4802613;29;20050;-83
2021/05/17 06:47:38;;;;;;;19.98;13.63;;;11.30;99.90;;;;;;4802734;29;20047;-83
2021/05/17 06:50:06;;;;;;;17.33;13.23;;;11.30;99.90;;;;;;4773480;29;20110;-83
2021/05/17 06:52:31;;;;;;;20.25;13.88;;;11.40;99.90;;;;;;4787659;29;20046;-83
2021/05/17 06:55:01;;;;;;;20.65;13.52;;;11.40;99.90;;;;;;4803901;29;20051;-83
2021/05/17 06:58:08;;;;;;;17.95;13.20;;;11.50;99.90;;;;;;4802936;29;20054;-83
2021/05/17 07:00:29;;;;;;;14.13;12.38;;;11.50;99.90;;;;;;4802751;29;20166;-83
2021/05/17 07:03:07;;;;;;;15.38;12.52;;;11.60;99.90;;;;;;4803469;29;20038;-83
2021/05/17 07:05:34;;;;;;;20.20;13.20;;;11.60;99.90;;;;;;4802286;29;20038;-83
2021/05/17 07:13:16;;;;;;;15.77;12.40;;;11.70;99.90;;;;;;4802149;29;20057;-83
2021/05/17 07:15:43;;;;;;;16.45;12.90;;;11.70;99.90;;;;;;4803244;29;20134;-83
2021/05/17 07:18:09;;;;;;;17.73;12.80;;;11.80;99.90;;;;;;4802698;29;20073;-83
2021/05/17 07:25:57;;;;;;;16.25;13.20;;;11.80;99.90;;;;;;4803284;29;20107;-83
2021/05/17 07:28:49;;;;;;;14.23;12.50;;;11.80;99.90;;;;;;5123180;27;20428;-84
2021/05/17 07:31:15;;;;;;;19.40;14.00;;;11.80;99.90;;;;;;5125833;27;20115;-84
2021/05/17 07:33:41;;;;;;;20.27;14.10;;;11.90;99.90;;;;;;5125884;27;20483;-84
2021/05/17 07:36:07;;;;;;;18.75;13.77;;;11.90;99.90;;;;;;5108250;28;20042;-84
2021/05/17 07:38:33;;;;;;;16.45;13.38;;;11.90;99.90;;;;;;5124157;27;20031;-84
2021/05/17 07:41:01;;;;;;;20.17;13.73;;;12.00;99.90;;;;;;5117558;27;20394;-84
2021/05/17 07:43:27;;;;;;;21.90;14.50;;;12.20;99.90;;;;;;5120338;27;20087;-84
2021/05/17 07:45:54;;;;;;;24.75;15.63;;;12.00;99.90;;;;;;5096404;28;20077;-83
2021/05/17 07:48:20;;;;;;;22.30;14.45;;;12.00;99.90;;;;;;5102201;28;20036;-84
2021/05/17 07:50:46;;;;;;;21.73;15.45;;;12.10;99.90;;;;;;5086810;28;20115;-84
2021/05/17 07:53:13;;;;;;;19.38;14.43;;;12.10;99.90;;;;;;5101263;28;20459;-84
2021/05/17 07:55:41;;;;;;;20.27;15.27;;;12.00;99.90;;;;;;5099316;28;20522;-84
2021/05/17 07:58:07;;;;;;;21.77;16.02;;;12.10;99.90;;;;;;5064484;28;20101;-84
2021/05/17 08:00:33;;;;;;;22.20;15.88;;;12.10;99.90;;;;;;5104520;28;20055;-84
2021/05/17 08:02:59;;;;;;;22.48;16.23;;;12.10;99.90;;;;;;5080951;28;20123;-84
2021/05/17 08:05:25;;;;;;;25.67;17.63;;;12.10;99.90;;;;;;5087660;28;20081;-81
2021/05/17 08:07:51;;;;;;;23.10;16.33;;;12.10;99.90;;;;;;5093759;28;20040;-84
2021/05/17 08:10:17;;;;;;;21.77;16.83;;;12.20;99.90;;;;;;5092229;28;20040;-84
2021/05/17 08:12:43;;;;;;;23.30;18.17;;;12.20;99.90;;;;;;5062303;28;21338;-84
2021/05/17 08:15:09;;;;;;;27.60;19.85;;;12.20;99.90;;;;;;5101631;28;20036;-83
2021/05/17 08:17:35;;;;;;;26.38;19.50;;;12.30;99.90;;;;;;5100343;28;20100;-83
2021/05/17 08:20:03;;;;;;;26.70;20.48;;;12.30;99.90;;;;;;5068571;28;20475;-84
2021/05/17 08:22:28;;;;;;;26.88;18.60;;;12.30;99.90;;;;;;5088291;28;20058;-84
2021/05/17 08:24:55;;;;;;;27.58;20.08;;;12.40;99.90;;;;;;5097833;28;20036;-84
2021/05/17 08:27:25;;;;;;;28.02;20.38;;;12.40;99.90;;;;;;5097805;28;20044;-84
2021/05/17 08:29:51;;;;;;;31.13;21.52;;;12.80;99.90;;;;;;5099263;28;20475;-85
2021/05/17 08:32:17;;;;;;;27.83;21.25;;;12.50;99.90;;;;;;5097256;28;20042;-84
2021/05/17 08:34:43;;;;;;;28.08;21.05;;;12.60;99.90;;;;;;5094680;28;20382;-85
2021/05/17 08:37:09;;;;;;;29.05;21.67;;;12.60;99.90;;;;;;5097605;28;20055;-84
2021/05/17 08:39:35;;;;;;;29.10;19.73;;;12.60;99.90;;;;;;5085525;28;20060;-82
2021/05/17 08:42:00;;;;;;;30.65;21.63;;;12.60;99.90;;;;;;5073852;28;20052;-85
2021/05/17 08:44:28;;;;;;;27.55;19.92;;;12.70;99.90;;;;;;5084017;28;20048;-82
2021/05/17 08:46:55;;;;;;;23.38;18.17;;;12.70;99.90;;;;;;5078335;28;20438;-83
2021/05/17 08:49:21;;;;;;;29.55;19.10;;;12.80;99.90;;;;;;5075901;28;20091;-82
2021/05/17 08:51:48;;;;;;;25.60;20.33;;;12.80;99.90;;;;;;5085144;28;20095;-82
2021/05/17 08:54:14;;;;;;;24.00;18.63;;;12.80;99.90;;;;;;5076460;28;20059;-83
2021/05/17 08:56:43;;;;;;;23.48;17.90;;;12.70;99.90;;;;;;5076927;28;20036;-80
2021/05/17 08:59:18;;;;;;;24.98;18.65;;;12.90;99.90;;;;;;5083338;28;20028;-80
2021/05/17 09:01:44;;;;;;;23.73;18.10;;;12.80;99.90;;;;;;5083319;28;20167;-83
2021/05/17 09:04:14;;;;;;;22.58;18.67;;;13.20;99.90;;;;;;5081065;28;20500;-84
2021/05/17 09:06:55;;;;;;;28.27;18.90;;;12.60;99.90;;;;;;5077662;28;20037;-80
2021/05/17 09:09:39;;;;;;;22.80;18.65;;;12.60;99.90;;;;;;5055283;28;20082;-82
2021/05/17 09:12:09;;;;;;;25.58;18.15;;;12.60;99.90;;;;;;5072681;28;20099;-80
2021/05/17 09:14:36;;;;;;;19.67;16.80;;;12.70;99.90;;;;;;5066829;28;20036;-81
2021/05/17 09:17:06;;;;;;;21.63;15.10;;;12.70;99.90;;;;;;5067641;28;20067;-81
2021/05/17 09:19:32;;;;;;;17.98;13.32;;;12.80;99.90;;;;;;5074821;28;20485;-86
2021/05/17 09:22:07;;;;;;;18.88;13.65;;;12.80;99.90;;;;;;5074861;28;20043;-86
2021/05/17 09:24:37;;;;;;;20.38;14.98;;;12.80;99.90;;;;;;5073547;28;20033;-84
2021/05/17 09:27:08;;;;;;;18.08;13.65;;;12.80;99.90;;;;;;5072686;28;20447;-80
2021/05/17 09:29:39;;;;;;;17.65;13.70;;;12.80;99.90;;;;;;5073473;28;20036;-85
2021/05/17 09:32:17;;;;;;;20.25;13.10;;;13.00;99.90;;;;;;5073151;28;20136;-77
2021/05/17 09:34:46;;;;;;;17.83;13.35;;;12.90;99.90;;;;;;5073040;28;20369;-77
2021/05/17 09:37:11;;;;;;;15.98;12.90;;;12.90;99.90;;;;;;5065381;28;20038;-76
2021/05/17 09:39:47;;;;;;;20.45;14.73;;;12.90;99.90;;;;;;5077777;28;20032;-76
2021/05/17 09:42:13;;;;;;;;;;;12.90;99.90;;;;;;5067270;28;20052;-76
2021/05/17 09:45:09;;;;;;;18.58;13.90;;;12.90;99.90;;;;;;5085111;28;19923;-76
2021/05/17 09:48:05;;;;;;;20.48;13.93;;;12.80;99.90;;;;;;5088146;28;20411;-76
2021/05/17 09:51:22;;;;;;;18.73;13.77;;;12.80;99.90;;;;;;5089316;28;20040;-76
2021/05/17 09:53:52;;;;;;;20.63;15.20;;;12.80;99.90;;;;;;5067583;28;20068;-76
2021/05/17 09:56:30;;;;;;;20.83;15.05;;;13.00;99.90;;;;;;5091053;28;20036;-76
2021/05/17 09:59:01;;;;;;;20.52;14.60;;;12.80;99.90;;;;;;5056423;28;20042;-77
2021/05/17 10:01:43;;;;;;;19.70;14.60;;;12.80;99.90;;;;;;5088731;28;20089;-77
2021/05/17 10:04:45;;;;;;;20.52;14.05;;;13.00;99.90;;;;;;5089993;28;20082;-76
2021/05/17 10:07:15;;;;;;;23.75;15.65;;;13.00;99.90;;;;;;5060428;28;20036;-76
2021/05/17 10:09:48;;;;;;;24.20;15.93;;;13.10;99.90;;;;;;5088564;28;20044;-76
2021/05/17 10:12:14;;;;;;;17.17;14.88;;;13.20;99.90;;;;;;5055286;28;20032;-76
2021/05/17 10:14:41;;;;;;;22.63;15.68;;;13.20;99.90;;;;;;5088355;28;20048;-76
2021/05/17 10:17:06;;;;;;;19.27;15.25;;;13.30;99.90;;;;;;5080094;28;20047;-76
2021/05/17 10:19:33;;;;;;;22.63;15.13;;;13.40;99.90;;;;;;5091515;28;20032;-76
2021/05/17 10:21:59;;;;;;;19.75;14.23;;;13.50;99.90;;;;;;5089969;28;20036;-76
2021/05/17 10:24:28;;;;;;;19.00;12.88;;;13.50;99.90;;;;;;5080821;28;20078;-76
2021/05/17 10:27:00;;;;;;;16.90;12.30;;;13.50;99.90;;;;;;5077887;28;20076;-84
2021/05/17 10:29:37;;;;;;;18.15;12.57;;;13.60;99.90;;;;;;5089117;28;20387;-85
2021/05/17 10:32:08;;;;;;;15.45;9.65;;;13.60;99.90;;;;;;5081192;28;20530;-86
2021/05/17 10:35:07;;;;;;;13.48;9.77;;;13.80;99.90;;;;;;5085307;28;20032;-78
2021/05/17 10:37:37;;;;;;;12.68;8.05;;;13.60;99.90;;;;;;5076148;28;20048;-82
2021/05/17 10:40:04;;;;;;;9.07;4.65;;;13.60;99.90;;;;;;5068030;28;20053;-84
2021/05/17 10:42:49;;;;;;;7.35;5.00;;;13.60;99.90;;;;;;5076913;28;20044;-84
2021/05/17 10:48:29;;;;;;;9.25;5.75;;;13.60;99.90;;;;;;5087064;28;20044;-81
2021/05/17 10:51:17;;;;;;;7.95;5.03;;;13.60;99.90;;;;;;5080083;28;20051;-84
2021/05/17 10:53:58;;;;;;;11.98;6.20;;;13.60;99.90;;;;;;5083658;28;20040;-82
2021/05/17 11:02:41;;;;;;;;;;;;;;;;;;;;;
2021/05/17 11:05:18;;;;;;;9.52;6.28;;;13.70;99.90;;;;;;5082335;28;20059;-84
2021/05/17 11:08:03;;;;;;;11.45;6.47;;;13.80;99.90;;;;;;5056316;28;20044;-84
2021/05/17 11:10:37;;;;;;;11.00;7.00;;;13.80;99.90;;;;;;5088016;28;20047;-84
2021/05/17 11:13:05;;;;;;;10.63;6.32;;;13.80;99.90;;;;;;5082913;28;20089;-80
2021/05/17 11:15:57;;;;;;;8.38;6.93;;;13.90;99.90;;;;;;5084529;28;20114;-80
2021/05/17 11:18:40;;;;;;;10.48;6.45;;;13.90;99.90;;;;;;5084450;28;20031;-81
2021/05/17 11:21:21;;;;;;;10.07;7.07;;;13.90;99.90;;;;;;5084665;28;20036;-84
2021/05/17 11:23:53;;;;;;;7.50;5.07;;;14.00;99.90;;;;;;5088431;28;20061;-84
2021/05/17 11:26:23;;;;;;;7.45;4.57;;;14.00;99.90;;;;;;5089377;28;20059;-81
2021/05/17 11:28:51;;;;;;;10.48;5.15;;;14.10;99.90;;;;;;5086191;28;20507;-81
2021/05/17 11:33:57;;;;;;;;;;;14.30;99.90;;;;;;5087064;28;20058;-81
2021/05/17 11:36:29;;;;;;;8.05;5.40;;;14.30;99.90;;;;;;5078858;28;19959;-81
2021/05/17 11:39:22;;;;;;;9.60;5.53;;;14.30;99.90;;;;;;5065425;28;21385;-83
2021/05/17 11:42:06;;;;;;;10.20;6.03;;;14.30;99.90;;;;;;5086942;28;20032;-84
2021/05/17 11:44:47;;;;;;;8.35;5.30;;;14.40;99.90;;;;;;5081856;28;20506;-84
2021/05/17 11:47:23;;;;;;;6.07;4.05;;;14.40;99.90;;;;;;5075836;28;20603;-83
2021/05/17 11:49:49;;;;;;;6.32;3.70;;;14.50;99.90;;;;;;5096156;28;20067;-81
2021/05/17 11:52:21;;;;;;;6.22;3.33;;;14.60;99.90;;;;;;5082874;28;20049;-84
2021/05/17 11:54:50;;;;;;;6.47;3.70;;;14.80;99.90;;;;;;5066794;28;20039;-80
2021/05/17 11:57:27;;;;;;;7.30;3.92;;;15.00;99.90;;;;;;5082743;28;20040;-84
2021/05/17 11:59:59;;;;;;;7.30;4.10;;;15.10;99.90;;;;;;5079184;28;20039;-81
2021/05/17 12:02:25;;;;;;;7.57;4.40;;;15.40;99.90;;;;;;5081524;28;20040;-80
2021/05/17 12:04:51;;;;;;;7.38;4.63;;;15.20;99.90;;;;;;5051866;28;20059;-83
2021/05/17 12:07:19;;;;;;;8.45;4.20;;;15.30;99.90;;;;;;5076356;28;20040;-81
2021/05/17 12:09:48;;;;;;;7.55;3.83;;;15.70;99.90;;;;;;5083683;28;20668;-80
2021/05/17 12:12:15;;;;;;;8.20;3.72;;;15.30;99.90;;;;;;5087268;28;20048;-80
2021/05/17 12:14:44;;;;;;;6.70;3.40;;;15.30;99.90;;;;;;5085132;28;20393;-81
2021/05/17 12:17:17;;;;;;;5.63;3.00;;;15.40;99.90;;;;;;5090786;28;20119;-83
2021/05/17 12:19:46;;;;;;;3.60;2.08;;;15.40;99.90;;;;;;5091528;28;20051;-80
2021/05/17 12:22:17;;;;;;;2.95;2.00;;;15.20;99.90;;;;;;5088838;28;20048;-80
2021/05/17 12:24:43;;;;;;;12.27;7.63;;;15.30;99.90;;;;;;5091531;28;20078;-80
2021/05/17 12:27:11;;;;;;;12.70;8.60;;;15.20;99.90;;;;;;5078492;28;20055;-81
2021/05/17 12:30:00;;;;;;;12.55;8.35;;;15.00;99.90;;;;;;5090941;28;20483;-80
2021/05/17 12:32:53;;;;;;;17.85;10.27;;;14.90;99.90;;;;;;5071347;28;20060;-79
2021/05/17 12:35:35;;;;;;;13.68;10.57;;;14.80;99.90;;;;;;5083745;28;20047;-81
2021/05/17 12:38:13;;;;;;;16.73;12.50;;;14.70;99.90;;;;;;5081963;28;20048;-80
2021/05/17 12:40:50;;;;;;;15.55;11.25;;;14.60;99.90;;;;;;5065181;28;20048;-80
2021/05/17 12:43:17;;;;;;;13.90;9.98;;;14.50;99.90;;;;;;5083303;28;20556;-80
2021/05/17 12:45:48;;;;;;;11.70;9.00;;;14.40;99.90;;;;;;5081607;28;20081;-75
2021/05/17 12:48:43;;;;;;;15.23;8.75;;;14.30;99.90;;;;;;5085641;28;20024;-79
2021/05/17 12:51:27;;;;;;;11.00;8.25;;;14.10;99.90;;;;;;5065009;28;20044;-78
2021/05/17 12:54:10;;;;;;;13.13;8.00;;;14.10;99.90;;;;;;5089344;28;20036;-79
2021/05/17 12:56:36;;;;;;;9.68;7.10;;;14.00;99.90;;;;;;5089924;28;20486;-79
2021/05/17 12:59:15;;;;;;;9.93;5.43;;;13.90;99.90;;;;;;5089275;28;20039;-78
2021/05/17 13:01:45;;;;;;;8.18;5.10;;;14.00;99.90;;;;;;5090316;28;20119;-78
2021/05/17 13:04:21;;;;;;;6.22;4.68;;;14.00;99.90;;;;;;5086232;28;20089;-77
2021/05/17 13:06:47;;;;;;;5.63;3.90;;;14.10;99.90;;;;;;5063087;28;20047;-78
2021/05/17 13:09:20;;;;;;;6.80;3.92;;;14.00;99.90;;;;;;5074908;28;20048;-79
2021/05/17 13:11:55;;;;;;;5.93;4.38;;;13.90;99.90;;;;;;5085449;28;20057;-78
2021/05/17 13:14:25;;;;;;;8.90;4.87;;;13.80;99.90;;;;;;5075178;28;20396;-79
2021/05/17 13:16:54;;;;;;;6.72;4.70;;;13.70;99.90;;;;;;5069992;28;20055;-78
2021/05/17 13:31:03;;;;;;;8.30;5.18;;;13.70;99.90;;;;;;5081615;28;20058;-78
2021/05/17 13:33:46;;;;;;;6.75;4.75;;;13.60;99.90;;;;;;5088347;28;20040;-79
2021/05/17 13:36:18;;;;;;;10.18;5.20;;;13.50;99.90;;;;;;5084473;28;20036;-79
2021/05/17 13:38:54;;;;;;;8.75;5.00;;;13.40;99.90;;;;;;5077734;28;20036;-78
2021/05/17 13:41:24;;;;;;;6.85;4.45;;;13.40;99.90;;;;;;5089707;28;20149;-79
2021/05/17 13:43:50;;;;;;;7.45;4.93;;;13.60;99.90;;;;;;5079391;28;20039;-79